NCAR-RAP Real-Time Weather Data

Output produced by METARs form (23 February 2020  02:38 UTC)
found at http://weather.rap.ucar.edu/surface/
 
KSTL 230151Z 18009KT 10SM BKN250 08/M08 A3017 RMK AO2 SLP227 T00831078 $
KSTL 230051Z 17007KT 10SM BKN250 09/M07 A3017 RMK AO2 SLP226 T00891067 $
KSTL 222351Z COR 18008KT 10SM BKN250 10/M06 A3016 RMK AO2 SLP223 T01001056 10128 20100 56015 $
KSTL 222251Z 18011KT 10SM BKN250 11/M07 A3017 RMK AO2 SLP223 T01111072 $
KSTL 222151Z 18008G14KT 10SM BKN250 13/05 A3019 RMK AO2 SLP228 T01280050 $
KSTL 222051Z 21014KT 10SM BKN250 13/05 A3021 RMK AO2 SLP236 T01280050 56039 $
KSTL 221951Z 19008KT 10SM SCT250 13/05 A3024 RMK AO2 SLP247 T01280050 $
KSTL 221851Z 21006KT 10SM SCT250 12/05 A3028 RMK AO2 SLP259 T01220050 $
KSTL 221751Z COR 24010KT 10SM SCT250 11/04 A3033 RMK AO2 SLP276 T01110044 10011 21050 58019 $
KSTL 221651Z 22006KT 10SM FEW250 08/02 A3035 RMK AO2 SLP285 T00830022 $
KSTL 221551Z 23010KT 10SM FEW250 07/01 A3038 RMK AO2 SLP294 T00670011 $
KSTL 221451Z 24008KT 10SM SCT250 04/00 A3039 RMK AO2 SLP299 T00390000 53006 $
KSTL 221351Z 20004KT 10SM SCT250 M02/M11 A3038 RMK AO2 SLP296 T10221111 $
KSTL 221251Z 21005KT 10SM SCT250 M05/M10 A3037 RMK AO2 SLP295 T10501100 $
KSTL 221151Z COR 21007KT 10SM CLR M05/M10 A3037 RMK AO2 SLP296 T10501100 10000 21050 58005 $
KSTL 221051Z 23005KT 10SM CLR M03/M11 A3039 RMK AO2 SLP300 T10281111 $
KSTL 220951Z 22007KT 10SM CLR M01/M13 A3038 RMK AO2 SLP295 T10061128 $
KSTL 220851Z 22009KT 10SM CLR M01/M13 A3039 RMK AO2 SLP298 T10061133 58010
KSTL 220751Z 22007KT 10SM CLR M01/M13 A3041 RMK AO2 SLP307 T10111133
KSTL 220651Z 23006KT 10SM CLR M01/M13 A3043 RMK AO2 SLP315 T10111133
KSTL 220551Z 19007KT 10SM CLR 00/M13 A3042 RMK AO2 SLP310 T00001128 10039 20000 400671089 58013
KSTL 220451Z 18010KT 10SM CLR 01/M12 A3043 RMK AO2 SLP314 T00061117
KSTL 220351Z 19008KT 10SM CLR 01/M11 A3045 RMK AO2 SLP325 T00061111
KSTL 220251Z 16010KT 10SM CLR 01/M11 A3046 RMK AO2 SLP326 T00111111 58006
KSTL 220151Z 17008KT 10SM CLR 02/M12 A3048 RMK AO2 SLP333 T00221117
KSTL 220051Z 15007KT 10SM CLR 03/M13 A3048 RMK AO2 SLP334 T00331133
KSTL 212351Z 15008KT 10SM CLR 04/M13 A3047 RMK AO2 SLP333 T00391128 10067 20011 58023
KSTL 212251Z 16007KT 10SM CLR 05/M13 A3050 RMK AO2 SLP342 T00501128
KSTL 212151Z 20006KT 10SM CLR 06/M17 A3052 RMK AO2 SLP349 T00611167
KSTL 212051Z 19008KT 10SM CLR 06/M16 A3054 RMK AO2 SLP356 T00561161 56037
KSTL 211951Z VRB03KT 10SM CLR 04/M16 A3058 RMK AO2 SLP367 T00441156
KSTL 211851Z 23004KT 10SM CLR 03/M16 A3062 RMK AO2 SLP382 T00281156
KSTL 211751Z VRB06KT 10SM CLR 01/M15 A3066 RMK AO2 SLP395 T00111150 10017 21083 58020
KSTL 211651Z 22005KT 10SM CLR 00/M13 A3069 RMK AO2 SLP406 T00001133
KSTL 211551Z VRB03KT 10SM CLR M02/M14 A3071 RMK AO2 SLP415 T10221139
KSTL 211451Z 24004KT 10SM CLR M04/M11 A3072 RMK AO2 SLP418 T10391106 53009
KSTL 211351Z 23004KT 10SM CLR M06/M10 A3071 RMK AO2 SLP413 T10611100
KSTL 211251Z 00000KT 10SM CLR M08/M12 A3070 RMK AO2 SLP412 T10781117
KSTL 211151Z 00000KT 10SM CLR M08/M12 A3070 RMK AO2 SLP411 T10831122 11056 21089 55002
KSTL 211051Z 22003KT 10SM CLR M08/M12 A3069 RMK AO2 SLP409 T10831122
KSTL 210951Z 00000KT 10SM CLR M07/M12 A3069 RMK AO2 SLP409 T10721122
KSTL 210851Z 00000KT 10SM CLR M07/M12 A3070 RMK AO2 SLP410 T10671122 58007
KSTL 210751Z 34004KT 10SM CLR M07/M12 A3072 RMK AO2 SLP416 T10671122
KSTL 210651Z 31004KT 10SM CLR M07/M12 A3073 RMK AO2 SLP418 T10671117
KSTL 210551Z 33004KT 10SM CLR M06/M12 A3072 RMK AO2 SLP417 T10611122 11028 21061 400001061 58002
KSTL 210451Z 36005KT 10SM CLR M06/M12 A3073 RMK AO2 SLP421 T10561122
KSTL 210351Z 35006KT 10SM CLR M06/M12 A3074 RMK AO2 SLP424 T10561122
KSTL 210251Z 36006KT 10SM CLR M04/M12 A3073 RMK AO2 SLP420 T10441122 51012